sensor_id;sensor_type;location;lat;lon;timestamp;P1;durP1;ratioP1;P2;durP2;ratioP2
3597;SDS011;1813;52.016;8.714;2024-01-15T00:01:54;33.70;;;16.33;;
3597;SDS011;1813;52.016;8.714;2024-01-15T00:04:30;30.53;;;14.77;;
3597;SDS011;1813;52.016;8.714;2024-01-15T00:07:03;33.03;;;17.73;;
3597;SDS011;1813;52.016;8.714;2024-01-15T00:09:37;33.60;;;16.80;;
3597;SDS011;1813;52.016;8.714;2024-01-15T00:12:10;35.60;;;18.87;;
3597;SDS011;1813;52.016;8.714;2024-01-15T00:14:43;35.50;;;19.40;;
3597;SDS011;1813;52.016;8.714;2024-01-15T00:17:17;30.97;;;15.90;;
3597;SDS011;1813;52.016;8.714;2024-01-15T00:19:52;39.47;;;17.27;;
3597;SDS011;1813;52.016;8.714;2024-01-15T00:22:26;33.70;;;17.97;;
3597;SDS011;1813;52.016;8.714;2024-01-15T00:24:59;29.80;;;17.90;;
3597;SDS011;1813;52.016;8.714;2024-01-15T00:27:32;30.93;;;18.00;;
3597;SDS011;1813;52.016;8.714;2024-01-15T00:30:06;31.70;;;17.00;;
3597;SDS011;1813;52.016;8.714;2024-01-15T00:32:40;34.83;;;17.80;;
3597;SDS011;1813;52.016;8.714;2024-01-15T00:35:16;31.50;;;17.00;;
3597;SDS011;1813;52.016;8.714;2024-01-15T00:37:49;36.80;;;20.03;;
3597;SDS011;1813;52.016;8.714;2024-01-15T00:40:22;35.07;;;17.77;;
3597;SDS011;1813;52.016;8.714;2024-01-15T00:42:56;36.57;;;17.70;;
3597;SDS011;1813;52.016;8.714;2024-01-15T00:45:29;25.03;;;12.83;;
3597;SDS011;1813;52.016;8.714;2024-01-15T00:48:03;31.67;;;15.03;;
3597;SDS011;1813;52.016;8.714;2024-01-15T00:50:39;23.20;;;13.33;;
3597;SDS011;1813;52.016;8.714;2024-01-15T00:53:12;27.07;;;13.80;;
3597;SDS011;1813;52.016;8.714;2024-01-15T00:55:46;24.93;;;12.87;;
3597;SDS011;1813;52.016;8.714;2024-01-15T00:58:19;29.70;;;11.63;;
3597;SDS011;1813;52.016;8.714;2024-01-15T01:00:52;23.77;;;14.07;;
3597;SDS011;1813;52.016;8.714;2024-01-15T01:03:26;25.37;;;13.13;;
3597;SDS011;1813;52.016;8.714;2024-01-15T01:06:02;27.50;;;14.30;;
3597;SDS011;1813;52.016;8.714;2024-01-15T01:08:35;24.37;;;12.37;;
3597;SDS011;1813;52.016;8.714;2024-01-15T01:11:12;23.47;;;10.90;;
3597;SDS011;1813;52.016;8.714;2024-01-15T01:13:45;26.50;;;13.87;;
3597;SDS011;1813;52.016;8.714;2024-01-15T01:16:19;24.17;;;12.03;;
3597;SDS011;1813;52.016;8.714;2024-01-15T01:18:52;34.20;;;10.57;;
3597;SDS011;1813;52.016;8.714;2024-01-15T01:21:28;16.60;;;9.47;;
3597;SDS011;1813;52.016;8.714;2024-01-15T01:24:01;21.53;;;11.80;;
3597;SDS011;1813;52.016;8.714;2024-01-15T01:26:34;22.27;;;11.27;;
3597;SDS011;1813;52.016;8.714;2024-01-15T01:29:08;22.90;;;9.87;;
3597;SDS011;1813;52.016;8.714;2024-01-15T01:31:44;23.57;;;9.77;;
3597;SDS011;1813;52.016;8.714;2024-01-15T01:34:17;24.33;;;9.33;;
3597;SDS011;1813;52.016;8.714;2024-01-15T01:36:53;17.33;;;8.00;;
3597;SDS011;1813;52.016;8.714;2024-01-15T01:39:26;24.03;;;8.77;;
3597;SDS011;1813;52.016;8.714;2024-01-15T01:42:00;15.73;;;8.70;;
3597;SDS011;1813;52.016;8.714;2024-01-15T01:44:33;19.30;;;7.63;;
3597;SDS011;1813;52.016;8.714;2024-01-15T01:47:07;19.33;;;8.33;;
3597;SDS011;1813;52.016;8.714;2024-01-15T01:49:40;16.20;;;7.80;;
3597;SDS011;1813;52.016;8.714;2024-01-15T01:52:17;15.57;;;6.17;;
3597;SDS011;1813;52.016;8.714;2024-01-15T01:54:50;16.50;;;7.20;;
3597;SDS011;1813;52.016;8.714;2024-01-15T01:57:24;12.60;;;5.47;;
3597;SDS011;1813;52.016;8.714;2024-01-15T01:59:58;19.10;;;6.40;;
3597;SDS011;1813;52.016;8.714;2024-01-15T02:02:41;16.67;;;7.87;;
3597;SDS011;1813;52.016;8.714;2024-01-15T02:05:15;17.83;;;8.07;;
3597;SDS011;1813;52.016;8.714;2024-01-15T02:07:54;17.03;;;6.30;;
3597;SDS011;1813;52.016;8.714;2024-01-15T02:10:28;17.93;;;7.20;;
3597;SDS011;1813;52.016;8.714;2024-01-15T02:13:01;13.13;;;6.90;;
3597;SDS011;1813;52.016;8.714;2024-01-15T02:15:35;12.93;;;7.70;;
3597;SDS011;1813;52.016;8.714;2024-01-15T02:18:08;13.00;;;7.97;;
3597;SDS011;1813;52.016;8.714;2024-01-15T02:20:41;12.37;;;7.03;;
3597;SDS011;1813;52.016;8.714;2024-01-15T02:23:17;11.90;;;6.00;;
3597;SDS011;1813;52.016;8.714;2024-01-15T02:25:51;11.50;;;5.90;;
3597;SDS011;1813;52.016;8.714;2024-01-15T02:28:24;20.23;;;8.77;;
3597;SDS011;1813;52.016;8.714;2024-01-15T02:30:57;12.50;;;5.70;;
3597;SDS011;1813;52.016;8.714;2024-01-15T02:33:31;13.43;;;6.70;;
3597;SDS011;1813;52.016;8.714;2024-01-15T02:36:04;12.37;;;5.80;;
3597;SDS011;1813;52.016;8.714;2024-01-15T02:38:41;13.57;;;6.73;;
3597;SDS011;1813;52.016;8.714;2024-01-15T02:41:14;13.80;;;7.10;;
3597;SDS011;1813;52.016;8.714;2024-01-15T02:43:47;23.30;;;8.20;;
3597;SDS011;1813;52.016;8.714;2024-01-15T02:46:21;12.03;;;6.73;;
3597;SDS011;1813;52.016;8.714;2024-01-15T02:48:54;13.23;;;7.07;;
3597;SDS011;1813;52.016;8.714;2024-01-15T02:51:27;16.77;;;8.20;;
3597;SDS011;1813;52.016;8.714;2024-01-15T02:54:03;17.03;;;6.70;;
3597;SDS011;1813;52.016;8.714;2024-01-15T02:56:37;13.20;;;7.77;;
3597;SDS011;1813;52.016;8.714;2024-01-15T02:59:10;22.33;;;9.57;;
3597;SDS011;1813;52.016;8.714;2024-01-15T03:01:43;11.67;;;7.07;;
3597;SDS011;1813;52.016;8.714;2024-01-15T03:04:16;19.93;;;9.13;;
3597;SDS011;1813;52.016;8.714;2024-01-15T03:06:50;13.93;;;8.33;;
3597;SDS011;1813;52.016;8.714;2024-01-15T03:09:26;19.50;;;8.53;;
3597;SDS011;1813;52.016;8.714;2024-01-15T03:11:59;18.97;;;8.27;;
3597;SDS011;1813;52.016;8.714;2024-01-15T03:14:32;16.17;;;7.47;;
3597;SDS011;1813;52.016;8.714;2024-01-15T03:17:05;20.23;;;8.23;;
3597;SDS011;1813;52.016;8.714;2024-01-15T03:19:40;18.60;;;8.30;;
3597;SDS011;1813;52.016;8.714;2024-01-15T03:22:13;18.80;;;8.00;;
3597;SDS011;1813;52.016;8.714;2024-01-15T03:24:49;16.97;;;8.60;;
3597;SDS011;1813;52.016;8.714;2024-01-15T03:27:22;15.23;;;8.87;;
3597;SDS011;1813;52.016;8.714;2024-01-15T03:29:56;20.10;;;9.30;;
3597;SDS011;1813;52.016;8.714;2024-01-15T03:32:29;21.97;;;9.30;;
3597;SDS011;1813;52.016;8.714;2024-01-15T03:35:02;16.07;;;8.20;;
3597;SDS011;1813;52.016;8.714;2024-01-15T03:37:36;24.90;;;10.10;;
3597;SDS011;1813;52.016;8.714;2024-01-15T03:40:12;21.87;;;9.80;;
3597;SDS011;1813;52.016;8.714;2024-01-15T03:42:46;23.60;;;10.00;;
3597;SDS011;1813;52.016;8.714;2024-01-15T03:45:19;13.87;;;6.33;;
3597;SDS011;1813;52.016;8.714;2024-01-15T03:47:52;22.03;;;9.10;;
3597;SDS011;1813;52.016;8.714;2024-01-15T03:50:25;22.30;;;10.63;;
3597;SDS011;1813;52.016;8.714;2024-01-15T03:53:02;22.83;;;11.20;;
3597;SDS011;1813;52.016;8.714;2024-01-15T03:55:39;20.77;;;10.50;;
3597;SDS011;1813;52.016;8.714;2024-01-15T03:58:12;27.80;;;10.53;;
3597;SDS011;1813;52.016;8.714;2024-01-15T04:00:46;21.40;;;9.83;;
3597;SDS011;1813;52.016;8.714;2024-01-15T04:03:19;17.17;;;8.53;;
3597;SDS011;1813;52.016;8.714;2024-01-15T04:05:52;18.60;;;8.83;;
3597;SDS011;1813;52.016;8.714;2024-01-15T04:08:27;26.97;;;11.10;;
3597;SDS011;1813;52.016;8.714;2024-01-15T04:11:03;21.17;;;7.70;;
3597;SDS011;1813;52.016;8.714;2024-01-15T04:13:36;22.33;;;9.33;;
3597;SDS011;1813;52.016;8.714;2024-01-15T04:16:09;23.43;;;10.10;;
3597;SDS011;1813;52.016;8.714;2024-01-15T04:18:43;20.67;;;9.50;;
3597;SDS011;1813;52.016;8.714;2024-01-15T04:21:16;16.70;;;7.60;;
3597;SDS011;1813;52.016;8.714;2024-01-15T04:23:50;13.60;;;7.07;;
3597;SDS011;1813;52.016;8.714;2024-01-15T04:26:26;15.33;;;7.80;;
3597;SDS011;1813;52.016;8.714;2024-01-15T04:28:59;14.03;;;7.47;;
3597;SDS011;1813;52.016;8.714;2024-01-15T04:31:32;16.33;;;6.20;;
3597;SDS011;1813;52.016;8.714;2024-01-15T04:34:06;19.77;;;9.23;;
3597;SDS011;1813;52.016;8.714;2024-01-15T04:36:39;14.90;;;6.93;;
3597;SDS011;1813;52.016;8.714;2024-01-15T04:39:13;20.60;;;8.70;;
3597;SDS011;1813;52.016;8.714;2024-01-15T04:41:49;23.03;;;8.80;;
3597;SDS011;1813;52.016;8.714;2024-01-15T04:44:22;28.23;;;9.47;;
3597;SDS011;1813;52.016;8.714;2024-01-15T04:46:55;19.03;;;7.77;;
3597;SDS011;1813;52.016;8.714;2024-01-15T04:49:29;15.53;;;7.40;;
3597;SDS011;1813;52.016;8.714;2024-01-15T04:52:06;22.73;;;8.93;;
3597;SDS011;1813;52.016;8.714;2024-01-15T04:54:40;14.20;;;5.80;;
3597;SDS011;1813;52.016;8.714;2024-01-15T04:57:16;22.50;;;7.93;;
3597;SDS011;1813;52.016;8.714;2024-01-15T04:59:49;15.83;;;7.27;;
3597;SDS011;1813;52.016;8.714;2024-01-15T05:02:23;14.30;;;8.10;;
3597;SDS011;1813;52.016;8.714;2024-01-15T05:04:56;19.37;;;7.87;;
3597;SDS011;1813;52.016;8.714;2024-01-15T05:07:29;17.70;;;8.10;;
3597;SDS011;1813;52.016;8.714;2024-01-15T05:10:03;16.50;;;8.00;;
3597;SDS011;1813;52.016;8.714;2024-01-15T05:12:42;23.80;;;7.93;;
3597;SDS011;1813;52.016;8.714;2024-01-15T05:15:16;16.73;;;8.30;;
3597;SDS011;1813;52.016;8.714;2024-01-15T05:17:50;16.27;;;8.20;;
3597;SDS011;1813;52.016;8.714;2024-01-15T05:20:23;18.40;;;8.20;;
3597;SDS011;1813;52.016;8.714;2024-01-15T05:22:56;17.23;;;8.40;;
3597;SDS011;1813;52.016;8.714;2024-01-15T05:25:30;13.87;;;7.77;;
3597;SDS011;1813;52.016;8.714;2024-01-15T05:28:06;16.97;;;8.93;;
3597;SDS011;1813;52.016;8.714;2024-01-15T05:30:39;18.73;;;7.30;;
3597;SDS011;1813;52.016;8.714;2024-01-15T05:33:12;22.63;;;10.00;;
3597;SDS011;1813;52.016;8.714;2024-01-15T05:35:45;15.07;;;7.23;;
3597;SDS011;1813;52.016;8.714;2024-01-15T05:38:20;18.70;;;8.17;;
3597;SDS011;1813;52.016;8.714;2024-01-15T05:40:53;15.50;;;6.97;;
3597;SDS011;1813;52.016;8.714;2024-01-15T05:43:29;15.97;;;8.87;;
3597;SDS011;1813;52.016;8.714;2024-01-15T05:46:03;17.50;;;8.80;;
3597;SDS011;1813;52.016;8.714;2024-01-15T05:48:36;14.73;;;7.77;;
3597;SDS011;1813;52.016;8.714;2024-01-15T05:51:13;16.57;;;7.50;;
3597;SDS011;1813;52.016;8.714;2024-01-15T05:53:46;20.13;;;8.90;;
3597;SDS011;1813;52.016;8.714;2024-01-15T05:56:19;14.97;;;7.00;;
3597;SDS011;1813;52.016;8.714;2024-01-15T05:58:56;18.80;;;8.40;;
3597;SDS011;1813;52.016;8.714;2024-01-15T06:01:30;20.37;;;8.80;;
3597;SDS011;1813;52.016;8.714;2024-01-15T06:04:03;15.37;;;8.43;;
3597;SDS011;1813;52.016;8.714;2024-01-15T06:06:37;15.70;;;8.27;;
3597;SDS011;1813;52.016;8.714;2024-01-15T06:09:12;12.80;;;8.07;;
3597;SDS011;1813;52.016;8.714;2024-01-15T06:11:46;13.00;;;7.00;;
3597;SDS011;1813;52.016;8.714;2024-01-15T06:14:21;16.57;;;7.77;;
3597;SDS011;1813;52.016;8.714;2024-01-15T06:16:55;10.87;;;6.67;;
3597;SDS011;1813;52.016;8.714;2024-01-15T06:19:28;13.37;;;6.67;;
3597;SDS011;1813;52.016;8.714;2024-01-15T06:22:01;13.73;;;8.27;;
3597;SDS011;1813;52.016;8.714;2024-01-15T06:24:35;16.57;;;8.80;;
3597;SDS011;1813;52.016;8.714;2024-01-15T06:27:08;13.33;;;7.67;;
3597;SDS011;1813;52.016;8.714;2024-01-15T06:29:44;14.30;;;8.07;;
3597;SDS011;1813;52.016;8.714;2024-01-15T06:32:21;14.67;;;8.40;;
3597;SDS011;1813;52.016;8.714;2024-01-15T06:34:57;16.73;;;8.33;;
3597;SDS011;1813;52.016;8.714;2024-01-15T06:37:37;17.17;;;8.70;;
3597;SDS011;1813;52.016;8.714;2024-01-15T06:40:12;14.80;;;8.90;;
3597;SDS011;1813;52.016;8.714;2024-01-15T06:42:51;14.07;;;7.27;;
3597;SDS011;1813;52.016;8.714;2024-01-15T06:45:27;13.77;;;8.30;;
3597;SDS011;1813;52.016;8.714;2024-01-15T06:48:01;16.37;;;9.10;;
3597;SDS011;1813;52.016;8.714;2024-01-15T06:50:34;20.37;;;9.17;;
3597;SDS011;1813;52.016;8.714;2024-01-15T06:53:08;17.23;;;8.23;;
3597;SDS011;1813;52.016;8.714;2024-01-15T06:55:44;15.27;;;7.73;;
3597;SDS011;1813;52.016;8.714;2024-01-15T06:58:19;18.27;;;8.67;;
3597;SDS011;1813;52.016;8.714;2024-01-15T07:00:55;19.00;;;9.67;;
3597;SDS011;1813;52.016;8.714;2024-01-15T07:03:28;17.77;;;10.27;;
3597;SDS011;1813;52.016;8.714;2024-01-15T07:06:02;19.20;;;9.83;;
3597;SDS011;1813;52.016;8.714;2024-01-15T07:08:36;21.17;;;9.23;;
3597;SDS011;1813;52.016;8.714;2024-01-15T07:11:09;20.10;;;8.83;;
3597;SDS011;1813;52.016;8.714;2024-01-15T07:13:42;10.97;;;7.50;;
3597;SDS011;1813;52.016;8.714;2024-01-15T07:16:18;12.80;;;7.83;;
3597;SDS011;1813;52.016;8.714;2024-01-15T07:18:53;14.67;;;9.10;;
3597;SDS011;1813;52.016;8.714;2024-01-15T07:21:29;14.03;;;7.83;;
3597;SDS011;1813;52.016;8.714;2024-01-15T07:24:03;13.93;;;8.50;;
3597;SDS011;1813;52.016;8.714;2024-01-15T07:26:42;13.63;;;8.60;;
3597;SDS011;1813;52.016;8.714;2024-01-15T07:29:15;16.20;;;8.13;;
3597;SDS011;1813;52.016;8.714;2024-01-15T07:31:51;20.90;;;8.33;;
3597;SDS011;1813;52.016;8.714;2024-01-15T07:34:25;15.93;;;8.47;;
3597;SDS011;1813;52.016;8.714;2024-01-15T07:36:58;18.20;;;9.20;;
3597;SDS011;1813;52.016;8.714;2024-01-15T07:39:31;17.53;;;8.90;;
3597;SDS011;1813;52.016;8.714;2024-01-15T07:42:06;17.87;;;7.93;;
3597;SDS011;1813;52.016;8.714;2024-01-15T07:44:39;10.00;;;6.60;;
3597;SDS011;1813;52.016;8.714;2024-01-15T07:47:15;17.57;;;8.80;;
3597;SDS011;1813;52.016;8.714;2024-01-15T07:49:49;19.40;;;7.63;;
3597;SDS011;1813;52.016;8.714;2024-01-15T07:52:22;12.40;;;8.00;;
3597;SDS011;1813;52.016;8.714;2024-01-15T07:54:55;15.17;;;7.13;;
3597;SDS011;1813;52.016;8.714;2024-01-15T07:57:29;13.27;;;7.60;;
3597;SDS011;1813;52.016;8.714;2024-01-15T08:00:03;12.60;;;7.80;;
3597;SDS011;1813;52.016;8.714;2024-01-15T08:02:41;10.70;;;6.50;;
3597;SDS011;1813;52.016;8.714;2024-01-15T08:05:15;11.20;;;7.57;;
3597;SDS011;1813;52.016;8.714;2024-01-15T08:07:51;9.80;;;6.70;;
3597;SDS011;1813;52.016;8.714;2024-01-15T08:10:24;9.60;;;6.50;;
3597;SDS011;1813;52.016;8.714;2024-01-15T08:12:59;13.17;;;7.20;;
3597;SDS011;1813;52.016;8.714;2024-01-15T08:15:32;13.07;;;7.40;;
3597;SDS011;1813;52.016;8.714;2024-01-15T08:18:08;9.10;;;4.83;;
3597;SDS011;1813;52.016;8.714;2024-01-15T08:20:42;10.43;;;7.30;;
3597;SDS011;1813;52.016;8.714;2024-01-15T08:23:15;11.90;;;7.77;;
3597;SDS011;1813;52.016;8.714;2024-01-15T08:25:48;12.83;;;6.70;;
3597;SDS011;1813;52.016;8.714;2024-01-15T08:28:21;14.10;;;6.83;;
3597;SDS011;1813;52.016;8.714;2024-01-15T08:30:55;12.10;;;6.70;;
3597;SDS011;1813;52.016;8.714;2024-01-15T08:33:30;13.03;;;7.03;;
3597;SDS011;1813;52.016;8.714;2024-01-15T08:36:04;8.07;;;6.10;;
3597;SDS011;1813;52.016;8.714;2024-01-15T08:38:37;7.50;;;4.43;;
3597;SDS011;1813;52.016;8.714;2024-01-15T08:41:11;10.53;;;5.50;;
3597;SDS011;1813;52.016;8.714;2024-01-15T08:43:44;7.63;;;4.87;;
3597;SDS011;1813;52.016;8.714;2024-01-15T08:46:17;5.70;;;4.90;;
3597;SDS011;1813;52.016;8.714;2024-01-15T08:48:53;5.87;;;5.27;;
3597;SDS011;1813;52.016;8.714;2024-01-15T08:51:27;9.47;;;5.83;;
3597;SDS011;1813;52.016;8.714;2024-01-15T08:54:00;8.67;;;6.30;;
3597;SDS011;1813;52.016;8.714;2024-01-15T08:56:34;6.33;;;5.70;;
3597;SDS011;1813;52.016;8.714;2024-01-15T08:59:07;7.53;;;6.00;;
3597;SDS011;1813;52.016;8.714;2024-01-15T09:01:41;8.10;;;6.03;;
3597;SDS011;1813;52.016;8.714;2024-01-15T09:04:17;8.40;;;6.80;;
3597;SDS011;1813;52.016;8.714;2024-01-15T09:06:50;9.70;;;6.33;;
3597;SDS011;1813;52.016;8.714;2024-01-15T09:09:23;8.47;;;6.07;;
3597;SDS011;1813;52.016;8.714;2024-01-15T09:11:57;6.90;;;5.67;;
3597;SDS011;1813;52.016;8.714;2024-01-15T09:14:31;9.00;;;6.33;;
3597;SDS011;1813;52.016;8.714;2024-01-15T09:17:04;6.53;;;5.77;;
3597;SDS011;1813;52.016;8.714;2024-01-15T09:19:40;6.00;;;5.40;;
3597;SDS011;1813;52.016;8.714;2024-01-15T09:22:14;6.83;;;5.40;;
3597;SDS011;1813;52.016;8.714;2024-01-15T09:24:48;8.67;;;6.40;;
3597;SDS011;1813;52.016;8.714;2024-01-15T09:27:21;9.27;;;6.80;;
3597;SDS011;1813;52.016;8.714;2024-01-15T09:29:56;9.93;;;6.90;;
3597;SDS011;1813;52.016;8.714;2024-01-15T09:32:29;12.40;;;7.07;;
3597;SDS011;1813;52.016;8.714;2024-01-15T09:35:06;12.57;;;7.13;;
3597;SDS011;1813;52.016;8.714;2024-01-15T09:37:41;8.63;;;6.47;;
3597;SDS011;1813;52.016;8.714;2024-01-15T09:40:14;9.37;;;7.03;;
3597;SDS011;1813;52.016;8.714;2024-01-15T09:42:48;12.80;;;7.60;;
3597;SDS011;1813;52.016;8.714;2024-01-15T09:45:22;11.33;;;7.77;;
3597;SDS011;1813;52.016;8.714;2024-01-15T09:47:56;9.33;;;6.80;;
3597;SDS011;1813;52.016;8.714;2024-01-15T09:50:32;9.30;;;6.10;;
3597;SDS011;1813;52.016;8.714;2024-01-15T09:53:05;17.50;;;8.30;;
3597;SDS011;1813;52.016;8.714;2024-01-15T09:55:39;19.33;;;8.60;;
3597;SDS011;1813;52.016;8.714;2024-01-15T09:58:14;14.07;;;7.93;;
3597;SDS011;1813;52.016;8.714;2024-01-15T10:00:47;15.50;;;7.27;;
3597;SDS011;1813;52.016;8.714;2024-01-15T10:03:21;12.33;;;7.80;;
3597;SDS011;1813;52.016;8.714;2024-01-15T10:05:57;16.57;;;6.93;;
3597;SDS011;1813;52.016;8.714;2024-01-15T10:08:32;10.10;;;6.73;;
3597;SDS011;1813;52.016;8.714;2024-01-15T10:11:06;16.93;;;7.90;;
3597;SDS011;1813;52.016;8.714;2024-01-15T10:13:40;11.73;;;7.60;;
3597;SDS011;1813;52.016;8.714;2024-01-15T10:16:14;17.13;;;7.97;;
3597;SDS011;1813;52.016;8.714;2024-01-15T10:18:47;16.73;;;7.43;;
3597;SDS011;1813;52.016;8.714;2024-01-15T10:21:24;8.60;;;5.73;;
3597;SDS011;1813;52.016;8.714;2024-01-15T10:23:57;16.13;;;7.40;;
3597;SDS011;1813;52.016;8.714;2024-01-15T10:26:33;17.10;;;6.80;;
3597;SDS011;1813;52.016;8.714;2024-01-15T10:29:06;14.90;;;7.20;;
3597;SDS011;1813;52.016;8.714;2024-01-15T10:31:41;14.60;;;7.13;;
3597;SDS011;1813;52.016;8.714;2024-01-15T10:34:14;10.40;;;6.60;;
3597;SDS011;1813;52.016;8.714;2024-01-15T10:36:50;20.20;;;6.80;;
3597;SDS011;1813;52.016;8.714;2024-01-15T10:39:25;10.93;;;4.80;;
3597;SDS011;1813;52.016;8.714;2024-01-15T10:41:59;10.13;;;5.70;;
3597;SDS011;1813;52.016;8.714;2024-01-15T10:44:32;16.40;;;7.33;;
3597;SDS011;1813;52.016;8.714;2024-01-15T10:47:05;8.77;;;5.43;;
3597;SDS011;1813;52.016;8.714;2024-01-15T10:49:39;9.60;;;6.00;;
3597;SDS011;1813;52.016;8.714;2024-01-15T10:52:17;17.13;;;5.13;;
3597;SDS011;1813;52.016;8.714;2024-01-15T10:54:51;10.00;;;5.90;;
3597;SDS011;1813;52.016;8.714;2024-01-15T10:57:26;8.47;;;4.70;;
3597;SDS011;1813;52.016;8.714;2024-01-15T10:59:59;9.87;;;5.00;;
3597;SDS011;1813;52.016;8.714;2024-01-15T11:02:34;14.13;;;5.17;;
3597;SDS011;1813;52.016;8.714;2024-01-15T11:05:12;8.83;;;5.80;;
3597;SDS011;1813;52.016;8.714;2024-01-15T11:07:50;14.47;;;5.60;;
3597;SDS011;1813;52.016;8.714;2024-01-15T11:10:41;12.70;;;5.20;;
3597;SDS011;1813;52.016;8.714;2024-01-15T11:13:19;10.83;;;5.73;;
3597;SDS011;1813;52.016;8.714;2024-01-15T11:16:00;9.17;;;5.03;;
3597;SDS011;1813;52.016;8.714;2024-01-15T11:18:34;12.73;;;5.43;;
3597;SDS011;1813;52.016;8.714;2024-01-15T11:21:21;10.30;;;4.87;;
3597;SDS011;1813;52.016;8.714;2024-01-15T11:23:59;8.40;;;4.70;;
3597;SDS011;1813;52.016;8.714;2024-01-15T11:26:37;13.93;;;5.13;;
3597;SDS011;1813;52.016;8.714;2024-01-15T11:29:28;11.53;;;6.00;;
3597;SDS011;1813;52.016;8.714;2024-01-15T11:32:03;10.07;;;4.77;;
3597;SDS011;1813;52.016;8.714;2024-01-15T11:34:51;15.33;;;4.97;;
3597;SDS011;1813;52.016;8.714;2024-01-15T11:40:44;11.23;;;4.07;;
3597;SDS011;1813;52.016;8.714;2024-01-15T11:43:18;11.37;;;4.77;;
3597;SDS011;1813;52.016;8.714;2024-01-15T11:45:53;12.00;;;3.93;;
3597;SDS011;1813;52.016;8.714;2024-01-15T11:48:28;8.53;;;4.20;;
3597;SDS011;1813;52.016;8.714;2024-01-15T11:51:11;9.30;;;4.40;;
3597;SDS011;1813;52.016;8.714;2024-01-15T11:53:45;8.10;;;4.33;;
3597;SDS011;1813;52.016;8.714;2024-01-15T11:56:25;8.10;;;4.27;;
3597;SDS011;1813;52.016;8.714;2024-01-15T11:58:58;6.90;;;4.60;;
3597;SDS011;1813;52.016;8.714;2024-01-15T12:01:32;5.47;;;4.10;;
3597;SDS011;1813;52.016;8.714;2024-01-15T12:04:06;8.70;;;4.33;;
3597;SDS011;1813;52.016;8.714;2024-01-15T12:06:41;9.77;;;4.60;;
3597;SDS011;1813;52.016;8.714;2024-01-15T12:09:14;8.50;;;4.70;;
3597;SDS011;1813;52.016;8.714;2024-01-15T12:11:57;11.97;;;5.20;;
3597;SDS011;1813;52.016;8.714;2024-01-15T12:14:38;8.17;;;4.47;;
3597;SDS011;1813;52.016;8.714;2024-01-15T12:17:11;9.53;;;4.43;;
3597;SDS011;1813;52.016;8.714;2024-01-15T12:19:44;8.97;;;4.60;;
3597;SDS011;1813;52.016;8.714;2024-01-15T12:22:18;9.53;;;4.27;;
3597;SDS011;1813;52.016;8.714;2024-01-15T12:24:51;7.20;;;4.73;;
3597;SDS011;1813;52.016;8.714;2024-01-15T12:27:27;7.30;;;4.60;;
3597;SDS011;1813;52.016;8.714;2024-01-15T12:30:00;7.33;;;4.50;;
3597;SDS011;1813;52.016;8.714;2024-01-15T12:32:34;8.13;;;4.10;;
3597;SDS011;1813;52.016;8.714;2024-01-15T12:35:07;6.77;;;4.10;;
3597;SDS011;1813;52.016;8.714;2024-01-15T12:37:42;6.80;;;3.70;;
3597;SDS011;1813;52.016;8.714;2024-01-15T12:40:18;8.43;;;3.90;;
3597;SDS011;1813;52.016;8.714;2024-01-15T12:42:55;8.90;;;3.60;;
3597;SDS011;1813;52.016;8.714;2024-01-15T12:45:28;8.43;;;3.83;;
3597;SDS011;1813;52.016;8.714;2024-01-15T12:48:03;6.47;;;3.40;;
3597;SDS011;1813;52.016;8.714;2024-01-15T12:50:37;4.73;;;2.93;;
3597;SDS011;1813;52.016;8.714;2024-01-15T12:53:11;12.07;;;4.57;;
3597;SDS011;1813;52.016;8.714;2024-01-15T12:55:46;5.77;;;3.40;;
3597;SDS011;1813;52.016;8.714;2024-01-15T12:58:22;8.27;;;3.93;;
3597;SDS011;1813;52.016;8.714;2024-01-15T13:00:56;17.70;;;4.80;;
3597;SDS011;1813;52.016;8.714;2024-01-15T13:03:29;7.07;;;4.20;;
3597;SDS011;1813;52.016;8.714;2024-01-15T13:06:05;5.80;;;3.80;;
3597;SDS011;1813;52.016;8.714;2024-01-15T13:08:42;6.13;;;3.97;;
3597;SDS011;1813;52.016;8.714;2024-01-15T13:11:16;5.60;;;3.67;;
3597;SDS011;1813;52.016;8.714;2024-01-15T13:13:53;9.33;;;3.67;;
3597;SDS011;1813;52.016;8.714;2024-01-15T13:16:29;3.57;;;3.23;;
3597;SDS011;1813;52.016;8.714;2024-01-15T13:19:03;11.97;;;3.60;;
3597;SDS011;1813;52.016;8.714;2024-01-15T13:21:37;6.47;;;3.50;;
3597;SDS011;1813;52.016;8.714;2024-01-15T13:24:12;14.27;;;3.87;;
3597;SDS011;1813;52.016;8.714;2024-01-15T13:26:46;5.10;;;3.37;;
3597;SDS011;1813;52.016;8.714;2024-01-15T13:29:24;16.40;;;3.60;;
3597;SDS011;1813;52.016;8.714;2024-01-15T13:31:58;9.33;;;3.40;;
3597;SDS011;1813;52.016;8.714;2024-01-15T13:34:33;8.57;;;3.30;;
3597;SDS011;1813;52.016;8.714;2024-01-15T13:37:06;6.00;;;3.13;;
3597;SDS011;1813;52.016;8.714;2024-01-15T13:39:40;5.53;;;3.17;;
3597;SDS011;1813;52.016;8.714;2024-01-15T13:42:13;7.03;;;3.07;;
3597;SDS011;1813;52.016;8.714;2024-01-15T13:44:49;3.40;;;2.77;;
3597;SDS011;1813;52.016;8.714;2024-01-15T13:47:22;5.13;;;2.80;;
3597;SDS011;1813;52.016;8.714;2024-01-15T13:49:56;5.80;;;3.23;;
3597;SDS011;1813;52.016;8.714;2024-01-15T13:52:29;5.30;;;3.40;;
3597;SDS011;1813;52.016;8.714;2024-01-15T13:55:03;4.43;;;3.20;;
3597;SDS011;1813;52.016;8.714;2024-01-15T13:57:39;6.33;;;3.40;;
3597;SDS011;1813;52.016;8.714;2024-01-15T14:00:15;4.27;;;3.20;;
3597;SDS011;1813;52.016;8.714;2024-01-15T14:02:50;4.70;;;3.07;;
3597;SDS011;1813;52.016;8.714;2024-01-15T14:05:23;8.43;;;3.60;;
3597;SDS011;1813;52.016;8.714;2024-01-15T14:07:56;5.80;;;3.43;;
3597;SDS011;1813;52.016;8.714;2024-01-15T14:10:30;5.80;;;3.50;;
3597;SDS011;1813;52.016;8.714;2024-01-15T14:13:03;7.43;;;3.17;;
3597;SDS011;1813;52.016;8.714;2024-01-15T14:15:39;3.60;;;2.93;;
3597;SDS011;1813;52.016;8.714;2024-01-15T14:18:13;4.47;;;3.30;;
3597;SDS011;1813;52.016;8.714;2024-01-15T14:20:46;4.33;;;3.07;;
3597;SDS011;1813;52.016;8.714;2024-01-15T14:23:19;7.90;;;3.67;;
3597;SDS011;1813;52.016;8.714;2024-01-15T14:25:53;7.00;;;3.10;;
3597;SDS011;1813;52.016;8.714;2024-01-15T14:28:26;5.50;;;3.27;;
3597;SDS011;1813;52.016;8.714;2024-01-15T14:31:02;4.93;;;3.40;;
3597;SDS011;1813;52.016;8.714;2024-01-15T14:33:36;3.63;;;2.70;;
3597;SDS011;1813;52.016;8.714;2024-01-15T14:36:09;5.90;;;2.83;;
3597;SDS011;1813;52.016;8.714;2024-01-15T14:38:42;8.03;;;2.87;;
3597;SDS011;1813;52.016;8.714;2024-01-15T14:41:16;4.57;;;2.67;;
3597;SDS011;1813;52.016;8.714;2024-01-15T14:43:49;7.77;;;3.90;;
3597;SDS011;1813;52.016;8.714;2024-01-15T14:46:28;4.97;;;3.67;;
3597;SDS011;1813;52.016;8.714;2024-01-15T14:49:01;6.70;;;2.83;;
3597;SDS011;1813;52.016;8.714;2024-01-15T14:51:38;6.50;;;3.90;;
3597;SDS011;1813;52.016;8.714;2024-01-15T14:54:15;6.20;;;4.03;;
3597;SDS011;1813;52.016;8.714;2024-01-15T14:56:48;5.97;;;4.20;;
3597;SDS011;1813;52.016;8.714;2024-01-15T14:59:21;8.10;;;4.20;;
3597;SDS011;1813;52.016;8.714;2024-01-15T15:01:57;15.03;;;4.13;;
3597;SDS011;1813;52.016;8.714;2024-01-15T15:04:31;6.40;;;4.10;;
3597;SDS011;1813;52.016;8.714;2024-01-15T15:07:04;4.63;;;3.97;;
3597;SDS011;1813;52.016;8.714;2024-01-15T15:09:39;4.53;;;3.20;;
3597;SDS011;1813;52.016;8.714;2024-01-15T15:12:12;5.40;;;3.87;;
3597;SDS011;1813;52.016;8.714;2024-01-15T15:14:46;3.23;;;2.60;;
3597;SDS011;1813;52.016;8.714;2024-01-15T15:17:21;3.60;;;2.67;;
3597;SDS011;1813;52.016;8.714;2024-01-15T15:19:55;3.93;;;2.63;;
3597;SDS011;1813;52.016;8.714;2024-01-15T15:22:28;4.13;;;3.00;;
3597;SDS011;1813;52.016;8.714;2024-01-15T15:25:01;3.07;;;2.87;;
3597;SDS011;1813;52.016;8.714;2024-01-15T15:27:38;3.33;;;2.80;;
3597;SDS011;1813;52.016;8.714;2024-01-15T15:30:13;4.13;;;2.87;;
3597;SDS011;1813;52.016;8.714;2024-01-15T15:32:49;3.20;;;2.90;;
3597;SDS011;1813;52.016;8.714;2024-01-15T15:35:22;4.93;;;3.20;;
3597;SDS011;1813;52.016;8.714;2024-01-15T15:37:56;3.70;;;2.70;;
3597;SDS011;1813;52.016;8.714;2024-01-15T15:40:30;5.10;;;2.93;;
3597;SDS011;1813;52.016;8.714;2024-01-15T15:43:06;6.00;;;3.17;;
3597;SDS011;1813;52.016;8.714;2024-01-15T15:45:39;7.23;;;3.23;;
3597;SDS011;1813;52.016;8.714;2024-01-15T15:48:15;3.83;;;2.20;;
3597;SDS011;1813;52.016;8.714;2024-01-15T15:50:49;3.97;;;2.20;;
3597;SDS011;1813;52.016;8.714;2024-01-15T15:53:23;3.43;;;2.70;;